Airfield :
LOGIN :

Register | Disclaimer

   EN    FR    IT 

 










Legend :    VFR   Marginal VFR   IFR   Intensive IFR   Very Intensive IFR
Visi :
Ceiling :
>= 8 km
>= 3000ft
5 to 8 km
1000 to 3000 ft
1500m to 5 km
500 to 1000 ft
800 to 1500m
200 to 500 ft
< 800m
< 200 ft
Symbols :   Thunderstorms  Fog  Heavy snow  Heavy precipitations  Wind > 20 kt
SIGMETs :     Misc.  Thunderstorms  Icing  Turbulence  Mountain Waves  Volcanic Ashes







- Airport Elevation : 200 ft


EBBL - Klein Brogel AB

CURRENT METAR :
  • 222325Z AUTO 26004KT 9999 BKN034/// BKN190/// 19/14 Q1014 BLU

EXPIRED METARs :
  • 222255Z AUTO 27006KT 9999 FEW029/// 19/14 Q1014 BLU
  • 222225Z AUTO 28008KT 9999 FEW025/// BKN190/// 19/14 Q1014 BLU
  • 222155Z AUTO 28008KT 9999 BKN190/// 20/14 Q1013 BLU
  • 222125Z AUTO 27008KT 9999 BKN180/// 20/14 Q1013 BLU
  • 222055Z AUTO 28007KT 9999 FEW031/// SCT190/// 20/14 Q1013 BLU

TAF TAF EBBL
Valid from the 22 at 19:00 until the 23 at 07:00 UTC


221541Z 2219/2307 26010KT 9999 SCT060 BKN250
PROB30
TEMPO 2219/2221 25015G30KT 3000 TSRAGR BKN050
BECMG 2301/2303 23005KT 9999 SCT030 BKN200
No reported NOTAMs for that airfield.



MET'MAP, your aeronautical weather chart ! - Copyright ORBIFLY December 2007 - Disclaimer

ORBIFLY MET'MAP TEAM :

Programming & Development : Alexandra Zaïnal
Concept & Development : Baudouin d'Aumeries
Co-Development & Prog : Marc-Olivier Méhu
Technical & hardware support : Manuel Goepfert

Contact : metmap@orbifly.com




SOURCES & CREDITS :

   NOAA